Alexander Duff — WDD9658 — position and weather

sailwx.info

Track history (hours):
 
Tides and Currents Weather Stations Pressure Air Temp Water Temp Dewpoint Dewpoint Depression Visibility Wind Speed Wind Dir Waves Ship Positions

Alexander Duff

Owner: Vane Line Bunkering, Philadelphia, PA. More information available from US FCC via Universal Licensing System and Coast Guard Vessel Documentation Center.

Last reported at 2018-Jun-21 16:27 UTC. Time now 2018-Jun-25 11:31 UTC.
Position N 37°40' W 076°26'.

Length 19 m; draft 2 m.

MMSI: 367314530.

Date/timePositionNaut miles runAvg speedWind from/ knotsBaromVisibWave heightAir tempDewpointWater temp
2018-Jun-21 16:27N 37°40' W 076°26'0 0.0
2018-Jun-20 20:12N 37°40' W 076°26'0 0.0
2018-Jun-20 20:00N 37°40' W 076°26'33 5.2
2018-Jun-20 13:32N 38°04' W 075°57'0 7.7
2018-Jun-20 13:29N 38°04' W 075°57'6 7.6
2018-Jun-20 12:41N 38°10' W 075°59'1 7.5
2018-Jun-20 12:30N 38°11' W 075°58'6 6.3
2018-Jun-20 11:36N 38°14' W 075°52'52 1.5
2018-Jun-19 02:09N 38°60' W 076°23'2 5.2
2018-Jun-19 01:46N 39°02' W 076°23'5 5.8
2018-Jun-19 00:56N 39°06' W 076°24'3 6.3
2018-Jun-19 00:27N 39°09' W 076°25'4 6.1
2018-Jun-18 23:51N 39°11' W 076°29'2 6.3
2018-Jun-18 23:30N 39°12' W 076°31'3 5.5
2018-Jun-18 23:00N 39°13' W 076°35'0 0.5
2018-Jun-18 22:28N 39°13' W 076°35'0 0.1
2018-Jun-18 22:00N 39°13' W 076°35'0 0.1
2018-Jun-18 21:28N 39°13' W 076°35'0 0.0
2018-Jun-18 21:00N 39°13' W 076°35'0 0.0
2018-Jun-18 20:30N 39°13' W 076°35'0 0.0
2018-Jun-18 19:50N 39°13' W 076°35'0 0.0
2018-Jun-18 19:29N 39°13' W 076°35'0 0.0
2018-Jun-18 18:58N 39°13' W 076°35'0 0.0
2018-Jun-18 18:30N 39°13' W 076°35'0 0.1
2018-Jun-18 18:00N 39°13' W 076°35'0 0.0
2018-Jun-18 17:30N 39°13' W 076°35'0 0.0
2018-Jun-18 17:00N 39°13' W 076°35'0 0.1
2018-Jun-18 16:29N 39°13' W 076°35'0 0.0
2018-Jun-18 16:00N 39°13' W 076°35'0 0.0
2018-Jun-18 15:30N 39°13' W 076°35'0 0.0
2018-Jun-18 15:00N 39°13' W 076°35'0 0.0
2018-Jun-18 14:30N 39°13' W 076°35'0 0.0
2018-Jun-18 13:44N 39°13' W 076°35'0 0.0
2018-Jun-18 13:25N 39°13' W 076°35'0 0.0
2018-Jun-18 13:00N 39°13' W 076°35'0 0.0
2018-Jun-18 12:30N 39°13' W 076°35'0 0.0
2018-Jun-18 12:00N 39°13' W 076°35'0 0.0
2018-Jun-18 11:29N 39°13' W 076°35'0 0.0
2018-Jun-18 10:58N 39°13' W 076°35'0 0.0
2018-Jun-18 10:24N 39°13' W 076°35'0 0.0
2018-Jun-18 09:56N 39°13' W 076°35'0 0.0
2018-Jun-18 09:28N 39°13' W 076°35'0 0.0
2018-Jun-18 09:00N 39°13' W 076°35'0 0.0
2018-Jun-18 08:30N 39°13' W 076°35'0 0.0
2018-Jun-18 07:48N 39°13' W 076°35'0 0.3
2018-Jun-18 07:30N 39°13' W 076°35'1 2.4
2018-Jun-18 07:01N 39°13' W 076°34'4 7.3
2018-Jun-18 06:30N 39°12' W 076°29'4 7.3
2018-Jun-18 06:01N 39°10' W 076°25'4 7.4
2018-Jun-18 05:30N 39°06' W 076°24'4 7.6
2018-Jun-18 04:59N 39°02' W 076°23'3 7.4
2018-Jun-18 04:31N 38°59' W 076°23'4 7.6
2018-Jun-18 04:00N 38°55' W 076°25'4 8.0
2018-Jun-18 03:31N 38°52' W 076°26'4 8.0
2018-Jun-18 03:00N 38°48' W 076°28'40 8.3
2018-Jun-17 22:10N 38°09' W 076°16'0 0.4
2018-Jun-17 21:50N 38°09' W 076°16'5 8.0
2018-Jun-17 21:14N 38°04' W 076°15'4 8.2
2018-Jun-17 20:48N 38°01' W 076°13'11 8.1
2018-Jun-17 19:23N 37°49' W 076°11'3 7.7
2018-Jun-17 18:57N 37°46' W 076°12'  
Track history (hours):
 
Tides and Currents Weather Stations Pressure Air Temp Water Temp Dewpoint Dewpoint Depression Visibility Wind Speed Wind Dir Waves Ship Positions

Alexander Duff

Owner: Vane Line Bunkering, Philadelphia, PA. More information available from US FCC via Universal Licensing System and Coast Guard Vessel Documentation Center.

Last reported at 2018-Jun-21 16:27 UTC. Time now 2018-Jun-25 11:31 UTC.
Position N 37°40' W 076°26'.

Length 19 m; draft 2 m.

MMSI: 367314530.

Date/timePositionNaut miles runAvg speedWind from/ knotsBaromVisibWave heightAir tempDewpointWater temp
2018-Jun-21 16:27N 37°40' W 076°26'0 0.0
2018-Jun-20 20:12N 37°40' W 076°26'0 0.0
2018-Jun-20 20:00N 37°40' W 076°26'33 5.2
2018-Jun-20 13:32N 38°04' W 075°57'0 7.7
2018-Jun-20 13:29N 38°04' W 075°57'6 7.6
2018-Jun-20 12:41N 38°10' W 075°59'1 7.5
2018-Jun-20 12:30N 38°11' W 075°58'6 6.3
2018-Jun-20 11:36N 38°14' W 075°52'52 1.5
2018-Jun-19 02:09N 38°60' W 076°23'2 5.2
2018-Jun-19 01:46N 39°02' W 076°23'5 5.8
2018-Jun-19 00:56N 39°06' W 076°24'3 6.3
2018-Jun-19 00:27N 39°09' W 076°25'4 6.1
2018-Jun-18 23:51N 39°11' W 076°29'2 6.3
2018-Jun-18 23:30N 39°12' W 076°31'3 5.5
2018-Jun-18 23:00N 39°13' W 076°35'0 0.5
2018-Jun-18 22:28N 39°13' W 076°35'0 0.1
2018-Jun-18 22:00N 39°13' W 076°35'0 0.1
2018-Jun-18 21:28N 39°13' W 076°35'0 0.0
2018-Jun-18 21:00N 39°13' W 076°35'0 0.0
2018-Jun-18 20:30N 39°13' W 076°35'0 0.0
2018-Jun-18 19:50N 39°13' W 076°35'0 0.0
2018-Jun-18 19:29N 39°13' W 076°35'0 0.0
2018-Jun-18 18:58N 39°13' W 076°35'0 0.0
2018-Jun-18 18:30N 39°13' W 076°35'0 0.1
2018-Jun-18 18:00N 39°13' W 076°35'0 0.0
2018-Jun-18 17:30N 39°13' W 076°35'0 0.0
2018-Jun-18 17:00N 39°13' W 076°35'0 0.1
2018-Jun-18 16:29N 39°13' W 076°35'0 0.0
2018-Jun-18 16:00N 39°13' W 076°35'0 0.0
2018-Jun-18 15:30N 39°13' W 076°35'0 0.0
2018-Jun-18 15:00N 39°13' W 076°35'0 0.0
2018-Jun-18 14:30N 39°13' W 076°35'0 0.0
2018-Jun-18 13:44N 39°13' W 076°35'0 0.0
2018-Jun-18 13:25N 39°13' W 076°35'0 0.0
2018-Jun-18 13:00N 39°13' W 076°35'0 0.0
2018-Jun-18 12:30N 39°13' W 076°35'0 0.0
2018-Jun-18 12:00N 39°13' W 076°35'0 0.0
2018-Jun-18 11:29N 39°13' W 076°35'0 0.0
2018-Jun-18 10:58N 39°13' W 076°35'0 0.0
2018-Jun-18 10:24N 39°13' W 076°35'0 0.0
2018-Jun-18 09:56N 39°13' W 076°35'0 0.0
2018-Jun-18 09:28N 39°13' W 076°35'0 0.0
2018-Jun-18 09:00N 39°13' W 076°35'0 0.0
2018-Jun-18 08:30N 39°13' W 076°35'0 0.0
2018-Jun-18 07:48N 39°13' W 076°35'0 0.3
2018-Jun-18 07:30N 39°13' W 076°35'1 2.4
2018-Jun-18 07:01N 39°13' W 076°34'4 7.3
2018-Jun-18 06:30N 39°12' W 076°29'4 7.3
2018-Jun-18 06:01N 39°10' W 076°25'4 7.4
2018-Jun-18 05:30N 39°06' W 076°24'4 7.6
2018-Jun-18 04:59N 39°02' W 076°23'3 7.4
2018-Jun-18 04:31N 38°59' W 076°23'4 7.6
2018-Jun-18 04:00N 38°55' W 076°25'4 8.0
2018-Jun-18 03:31N 38°52' W 076°26'4 8.0
2018-Jun-18 03:00N 38°48' W 076°28'40 8.3
2018-Jun-17 22:10N 38°09' W 076°16'0 0.4
2018-Jun-17 21:50N 38°09' W 076°16'5 8.0
2018-Jun-17 21:14N 38°04' W 076°15'4 8.2
2018-Jun-17 20:48N 38°01' W 076°13'11 8.1
2018-Jun-17 19:23N 37°49' W 076°11'3 7.7
2018-Jun-17 18:57N 37°46' W 076°12'  

Dump ship's entire track history